Portada
METAR-TAF:

METAR-TAF

Aeroports :

Urgench, Uzbekistan

latitud: 41-35N, longitud: 060-38-42E, altitud: 98 m

Observació

L'informe es va fer fa 35 minuts, a les 02:00 UTC
Vent 6 kt del Nord-Oest
Temperatura -2°C
Humitat 69%
Pressió 1027 hPa
Visibilitat 10 km o més
sense núvols per sota de 1500 mi sense presència de cumulonimbus.

METAR: UTNU 270200Z 31006KT CAVOK M02/M07 Q1027 R31/CLRD70 NOSIG

Hora: 07:35 (02:35 UTC)

Pronòstic

L'informe es va fer fa 3 hores i 35 minuts, a les 23:00 UTC
Pronòstic vàlid del 27 a les 00 UTC al 27 a les 24 UTC
Vent 10 kt del Oest amb ràfegues de 20 kt
Visibilitat: 6000 m
Núvols disperses a una alçada de 3000 ft
Cel ennuvolat a una alçada de 10000 ft
Temporalment
l' 27 a les 00 UTC al 27 a les 06 UTC
Vent 8 kt del Nord-Oest
Visibilitat: 3000 m
boirina

TAF: UTNU 262300Z 2700/2724 26010G20KT 6000 SCT030 BKN100 TEMPO 2700/2706 32008KT 3000 BR

Observacions i pronòstics meteorològics de més de 4000 aeroports (METAR i TAF).

Les estacions disponibles són els punts grocs i vermells al mapa.

Posi el ratolí al punt desitjat per veure el nom de l'estació.

Feu clic per veure les observacions i els pronòstics meteorològics.

Per canviar el mapa: feu clic els botons verds amb una creu de color negre per apropar; al botó verd amb un guió per allunyar la imatge; o en les fletxes verdes per a mapes adjacents.


METAR-TAF: